VHFWO YMML-YSSY
Flight info
| Callsign | VHFWO |
|---|---|
| Flight time | 1h 8m |
| Altitude | 37000 |
| Route | ML H129 DOSEL Y59 RIVET |
| Aircraft | C700/M-SBDGHM1RWXY/LB2 |
Departure
| Time | 2026-04-20 01:23 |
|---|---|
| Airport | Melbourne Airport (YMML) |
Arrival
| Time | 2026-04-20 02:31 |
|---|---|
| Airport | Sydney Kingsford Smith International Airport (YSSY) |
| Time | Latitude | Longitude | Altitude | Speed | Heading |
|---|---|---|---|---|---|
| 2026-04-20 00:54 | -37.68897 | 144.85402 | 331 ft | 0 kts | 330° |
| 2026-04-20 01:13 | -37.68895 | 144.85401 | 331 ft | 1 kts | 330° |
| 2026-04-20 01:13 | -37.68855 | 144.85391 | 330 ft | 11 kts | 351° |
| 2026-04-20 01:13 | -37.68733 | 144.85373 | 330 ft | 22 kts | 347° |
| 2026-04-20 01:13 | -37.68574 | 144.85333 | 331 ft | 24 kts | 356° |
| 2026-04-20 01:14 | -37.68486 | 144.85264 | 334 ft | 13 kts | 309° |
| 2026-04-20 01:14 | -37.68430 | 144.85171 | 339 ft | 14 kts | 295° |
| 2026-04-20 01:14 | -37.68416 | 144.85039 | 337 ft | 17 kts | 274° |
| 2026-04-20 01:14 | -37.68407 | 144.84881 | 339 ft | 19 kts | 274° |
| 2026-04-20 01:15 | -37.68366 | 144.84717 | 340 ft | 20 kts | 319° |
| 2026-04-20 01:15 | -37.68235 | 144.84672 | 354 ft | 20 kts | 356° |
| 2026-04-20 01:15 | -37.68096 | 144.84655 | 351 ft | 20 kts | 352° |
| 2026-04-20 01:15 | -37.67958 | 144.84624 | 355 ft | 20 kts | 349° |
| 2026-04-20 01:16 | -37.67849 | 144.84599 | 362 ft | 11 kts | 328° |
| 2026-04-20 01:16 | -37.67827 | 144.84508 | 359 ft | 13 kts | 261° |
| 2026-04-20 01:16 | -37.67817 | 144.84392 | 367 ft | 15 kts | 320° |
| 2026-04-20 01:16 | -37.67719 | 144.84366 | 368 ft | 14 kts | 352° |
| 2026-04-20 01:17 | -37.67620 | 144.84347 | 366 ft | 15 kts | 351° |
| 2026-04-20 01:17 | -37.67517 | 144.84327 | 369 ft | 15 kts | 351° |
| 2026-04-20 01:17 | -37.67409 | 144.84307 | 372 ft | 16 kts | 353° |
| 2026-04-20 01:17 | -37.67293 | 144.84286 | 374 ft | 17 kts | 350° |
| 2026-04-20 01:18 | -37.67169 | 144.84263 | 377 ft | 19 kts | 352° |
| 2026-04-20 01:18 | -37.67036 | 144.84237 | 379 ft | 20 kts | 351° |
| 2026-04-20 01:18 | -37.66897 | 144.84211 | 383 ft | 21 kts | 352° |
| 2026-04-20 01:18 | -37.66755 | 144.84184 | 388 ft | 20 kts | 351° |
| 2026-04-20 01:19 | -37.66622 | 144.84167 | 390 ft | 17 kts | 6° |
| 2026-04-20 01:19 | -37.66534 | 144.84260 | 397 ft | 18 kts | 70° |
| 2026-04-20 01:19 | -37.66514 | 144.84424 | 398 ft | 20 kts | 82° |
| 2026-04-20 01:19 | -37.66493 | 144.84605 | 400 ft | 22 kts | 81° |
| 2026-04-20 01:20 | -37.66442 | 144.84761 | 403 ft | 19 kts | 37° |
| 2026-04-20 01:20 | -37.66399 | 144.84776 | 405 ft | 8 kts | 2° |
| 2026-04-20 01:20 | -37.66365 | 144.84777 | 403 ft | 0 kts | 4° |
| 2026-04-20 01:21 | -37.66364 | 144.84777 | 404 ft | 1 kts | 4° |
| 2026-04-20 01:21 | -37.66353 | 144.84778 | 406 ft | 5 kts | 6° |
| 2026-04-20 01:21 | -37.66347 | 144.84779 | 404 ft | 2 kts | 6° |
| 2026-04-20 01:21 | -37.66289 | 144.84789 | 407 ft | 14 kts | 3° |
| 2026-04-20 01:22 | -37.66220 | 144.84703 | 407 ft | 19 kts | 274° |
| 2026-04-20 01:22 | -37.66200 | 144.84303 | 405 ft | 83 kts | 276° |
| 2026-04-20 01:22 | -37.66141 | 144.83279 | 442 ft | 146 kts | 273° |
| 2026-04-20 01:22 | -37.66060 | 144.81859 | 861 ft | 177 kts | 273° |
| 2026-04-20 01:23 | -37.65988 | 144.80234 | 1595 ft | 198 kts | 271° |
| 2026-04-20 01:23 | -37.65930 | 144.78377 | 2454 ft | 227 kts | 271° |
| 2026-04-20 01:23 | -37.65868 | 144.76318 | 3510 ft | 236 kts | 272° |
| 2026-04-20 01:23 | -37.65805 | 144.74384 | 4401 ft | 209 kts | 272° |
| 2026-04-20 01:24 | -37.65675 | 144.72638 | 5163 ft | 192 kts | 278° |
| 2026-04-20 01:24 | -37.65466 | 144.71023 | 5785 ft | 180 kts | 278° |
| 2026-04-20 01:24 | -37.65329 | 144.69493 | 6345 ft | 171 kts | 274° |
| 2026-04-20 01:24 | -37.65237 | 144.68021 | 6847 ft | 165 kts | 277° |
| 2026-04-20 01:25 | -37.64847 | 144.66696 | 7250 ft | 163 kts | 299° |
| 2026-04-20 01:25 | -37.64136 | 144.65583 | 7635 ft | 164 kts | 316° |
| 2026-04-20 01:25 | -37.63126 | 144.64819 | 8022 ft | 182 kts | 335° |
| 2026-04-20 01:25 | -37.61818 | 144.64337 | 8639 ft | 207 kts | 341° |
| 2026-04-20 01:26 | -37.60390 | 144.63787 | 9428 ft | 222 kts | 340° |
| 2026-04-20 01:26 | -37.58873 | 144.63207 | 10310 ft | 233 kts | 341° |
| 2026-04-20 01:26 | -37.57290 | 144.62628 | 11165 ft | 241 kts | 344° |
| 2026-04-20 01:26 | -37.55593 | 144.62544 | 12067 ft | 249 kts | 6° |
| 2026-04-20 01:27 | -37.53907 | 144.63135 | 13008 ft | 255 kts | 25° |
| 2026-04-20 01:27 | -37.52441 | 144.64389 | 13963 ft | 257 kts | 44° |
| 2026-04-20 01:27 | -37.51315 | 144.66129 | 14837 ft | 257 kts | 54° |
| 2026-04-20 01:27 | -37.50236 | 144.67921 | 15698 ft | 257 kts | 53° |
| 2026-04-20 01:28 | -37.49152 | 144.69694 | 16565 ft | 259 kts | 54° |
| 2026-04-20 01:28 | -37.48052 | 144.71525 | 17474 ft | 265 kts | 54° |
| 2026-04-20 01:28 | -37.47003 | 144.73476 | 18435 ft | 274 kts | 63° |
| 2026-04-20 01:28 | -37.46066 | 144.75615 | 19372 ft | 283 kts | 63° |
| 2026-04-20 01:29 | -37.45071 | 144.77795 | 20358 ft | 290 kts | 63° |
| 2026-04-20 01:29 | -37.44039 | 144.80006 | 21394 ft | 294 kts | 63° |
| 2026-04-20 01:29 | -37.43010 | 144.82247 | 22467 ft | 297 kts | 64° |
| 2026-04-20 01:29 | -37.41980 | 144.84508 | 23567 ft | 298 kts | 65° |
| 2026-04-20 01:30 | -37.41021 | 144.86595 | 24458 ft | 299 kts | 65° |
| 2026-04-20 01:30 | -37.39982 | 144.88855 | 25385 ft | 298 kts | 65° |
| 2026-04-20 01:30 | -37.38945 | 144.91107 | 26298 ft | 297 kts | 65° |
| 2026-04-20 01:30 | -37.37912 | 144.93348 | 27214 ft | 295 kts | 66° |
| 2026-04-20 01:31 | -37.36889 | 144.95577 | 28120 ft | 293 kts | 66° |
| 2026-04-20 01:31 | -37.35871 | 144.97786 | 29001 ft | 291 kts | 66° |
| 2026-04-20 01:31 | -37.34860 | 144.99975 | 29850 ft | 289 kts | 66° |
| 2026-04-20 01:31 | -37.33866 | 145.02132 | 30619 ft | 287 kts | 67° |
| 2026-04-20 01:32 | -37.32864 | 145.04303 | 31294 ft | 286 kts | 67° |
| 2026-04-20 01:32 | -37.31869 | 145.06454 | 31944 ft | 285 kts | 67° |
| 2026-04-20 01:32 | -37.30873 | 145.08614 | 32577 ft | 284 kts | 68° |
| 2026-04-20 01:32 | -37.29883 | 145.10753 | 33197 ft | 283 kts | 68° |
| 2026-04-20 01:33 | -37.28893 | 145.12893 | 33783 ft | 282 kts | 68° |
| 2026-04-20 01:33 | -37.27917 | 145.15000 | 34337 ft | 282 kts | 68° |
| 2026-04-20 01:33 | -37.26933 | 145.17126 | 34809 ft | 282 kts | 68° |
| 2026-04-20 01:33 | -37.25946 | 145.19257 | 35249 ft | 282 kts | 68° |
| 2026-04-20 01:34 | -37.24958 | 145.21387 | 35685 ft | 283 kts | 68° |
| 2026-04-20 01:34 | -37.23966 | 145.23523 | 36112 ft | 283 kts | 68° |
| 2026-04-20 01:34 | -37.22972 | 145.25661 | 36531 ft | 283 kts | 68° |
| 2026-04-20 01:34 | -37.21978 | 145.27798 | 36940 ft | 284 kts | 68° |
| 2026-04-20 01:35 | -37.20977 | 145.29946 | 37307 ft | 287 kts | 68° |
| 2026-04-20 01:35 | -37.19945 | 145.32187 | 37322 ft | 305 kts | 68° |
| 2026-04-20 01:35 | -37.18869 | 145.34573 | 37335 ft | 323 kts | 68° |
| 2026-04-20 01:35 | -37.17746 | 145.37106 | 37343 ft | 341 kts | 68° |
| 2026-04-20 01:36 | -37.16593 | 145.39752 | 37344 ft | 360 kts | 68° |
| 2026-04-20 01:36 | -37.15371 | 145.42595 | 37348 ft | 378 kts | 68° |
| 2026-04-20 01:36 | -37.14107 | 145.45577 | 37349 ft | 397 kts | 68° |
| 2026-04-20 01:36 | -37.12798 | 145.48698 | 37349 ft | 411 kts | 68° |
| 2026-04-20 01:37 | -37.11456 | 145.51923 | 37343 ft | 422 kts | 68° |
| 2026-04-20 01:37 | -37.10082 | 145.55248 | 37338 ft | 433 kts | 68° |
| 2026-04-20 01:37 | -37.07285 | 145.62074 | 37332 ft | 453 kts | 68° |
| 2026-04-20 01:38 | -37.04369 | 145.69254 | 37329 ft | 471 kts | 68° |
| 2026-04-20 01:38 | -37.01363 | 145.76717 | 37329 ft | 487 kts | 68° |
| 2026-04-20 01:39 | -36.98281 | 145.84414 | 37327 ft | 501 kts | 68° |
| 2026-04-20 01:39 | -36.95152 | 145.92268 | 37322 ft | 510 kts | 68° |
| 2026-04-20 01:40 | -36.91996 | 146.00188 | 37317 ft | 506 kts | 69° |
| 2026-04-20 01:40 | -36.88858 | 146.08052 | 37319 ft | 506 kts | 69° |
| 2026-04-20 01:41 | -36.85730 | 146.15882 | 37319 ft | 508 kts | 68° |
| 2026-04-20 01:41 | -36.81702 | 146.23273 | 37313 ft | 515 kts | 56° |
| 2026-04-20 01:42 | -36.76952 | 146.29923 | 37303 ft | 522 kts | 45° |
| 2026-04-20 01:42 | -36.71251 | 146.35621 | 37311 ft | 525 kts | 40° |
| 2026-04-20 01:43 | -36.65392 | 146.41016 | 37314 ft | 525 kts | 39° |
| 2026-04-20 01:43 | -36.59473 | 146.46371 | 37316 ft | 524 kts | 39° |
| 2026-04-20 01:44 | -36.53545 | 146.51705 | 37316 ft | 524 kts | 39° |
| 2026-04-20 01:44 | -36.47787 | 146.57174 | 37311 ft | 522 kts | 46° |
| 2026-04-20 01:45 | -36.45336 | 146.60527 | 37303 ft | 516 kts | 57° |
| 2026-04-20 01:45 | -36.43320 | 146.64144 | 37302 ft | 512 kts | 62° |
| 2026-04-20 01:45 | -36.39571 | 146.71656 | 37303 ft | 511 kts | 62° |
| 2026-04-20 01:46 | -36.35243 | 146.78649 | 37312 ft | 514 kts | 55° |
| 2026-04-20 01:46 | -36.30996 | 146.85746 | 37316 ft | 511 kts | 60° |
| 2026-04-20 01:47 | -36.26766 | 146.92879 | 37317 ft | 514 kts | 57° |
| 2026-04-20 01:47 | -36.22503 | 146.99924 | 37318 ft | 513 kts | 59° |
| 2026-04-20 01:48 | -36.18255 | 147.07062 | 37316 ft | 515 kts | 58° |
| 2026-04-20 01:48 | -36.13950 | 147.14162 | 37315 ft | 512 kts | 58° |
| 2026-04-20 01:49 | -36.09735 | 147.21189 | 37319 ft | 510 kts | 58° |
| 2026-04-20 01:49 | -36.05474 | 147.28214 | 37311 ft | 510 kts | 58° |
| 2026-04-20 01:50 | -36.01236 | 147.35231 | 37309 ft | 513 kts | 58° |
| 2026-04-20 01:50 | -35.96951 | 147.42280 | 37311 ft | 512 kts | 58° |
| 2026-04-20 01:51 | -35.92666 | 147.49334 | 37309 ft | 513 kts | 58° |
| 2026-04-20 01:51 | -35.88373 | 147.56375 | 37304 ft | 513 kts | 58° |
| 2026-04-20 01:52 | -35.84100 | 147.63378 | 37306 ft | 512 kts | 58° |
| 2026-04-20 01:52 | -35.79794 | 147.70414 | 37304 ft | 512 kts | 58° |
| 2026-04-20 01:53 | -35.75527 | 147.77374 | 37305 ft | 510 kts | 58° |
| 2026-04-20 01:53 | -35.71267 | 147.84309 | 37297 ft | 509 kts | 58° |
| 2026-04-20 01:54 | -35.66990 | 147.91256 | 37303 ft | 509 kts | 58° |
| 2026-04-20 01:54 | -35.62692 | 147.98228 | 37308 ft | 512 kts | 57° |
| 2026-04-20 01:55 | -35.58400 | 148.05170 | 37296 ft | 512 kts | 57° |
| 2026-04-20 01:55 | -35.54092 | 148.12128 | 37297 ft | 509 kts | 57° |
| 2026-04-20 01:56 | -35.49805 | 148.19036 | 37300 ft | 509 kts | 57° |
| 2026-04-20 01:56 | -35.45522 | 148.25929 | 37300 ft | 511 kts | 57° |
| 2026-04-20 01:57 | -35.41192 | 148.32874 | 37299 ft | 511 kts | 57° |
| 2026-04-20 01:57 | -35.36872 | 148.39800 | 37291 ft | 511 kts | 57° |
| 2026-04-20 01:58 | -35.32539 | 148.46724 | 37296 ft | 513 kts | 57° |
| 2026-04-20 01:58 | -35.28234 | 148.53594 | 37299 ft | 510 kts | 57° |
| 2026-04-20 01:59 | -35.23995 | 148.60328 | 36751 ft | 483 kts | 57° |
| 2026-04-20 01:59 | -35.21957 | 148.63577 | 35884 ft | 477 kts | 57° |
| 2026-04-20 01:59 | -35.19953 | 148.66774 | 35216 ft | 471 kts | 57° |
| 2026-04-20 02:00 | -35.17951 | 148.69954 | 34575 ft | 474 kts | 57° |
| 2026-04-20 02:00 | -35.15914 | 148.73185 | 33890 ft | 485 kts | 57° |
| 2026-04-20 02:00 | -35.13836 | 148.76480 | 33183 ft | 491 kts | 57° |
| 2026-04-20 02:00 | -35.11748 | 148.79778 | 32492 ft | 491 kts | 57° |
| 2026-04-20 02:01 | -35.09682 | 148.83036 | 31983 ft | 488 kts | 57° |
| 2026-04-20 02:01 | -35.07601 | 148.86327 | 31587 ft | 490 kts | 57° |
| 2026-04-20 02:01 | -35.05503 | 148.89651 | 31209 ft | 495 kts | 56° |
| 2026-04-20 02:01 | -35.03387 | 148.92986 | 30824 ft | 496 kts | 56° |
| 2026-04-20 02:02 | -35.01263 | 148.96324 | 30449 ft | 496 kts | 56° |
| 2026-04-20 02:02 | -34.99181 | 148.99597 | 30026 ft | 492 kts | 56° |
| 2026-04-20 02:02 | -34.97093 | 149.02884 | 29581 ft | 488 kts | 56° |
| 2026-04-20 02:02 | -34.95024 | 149.06138 | 29154 ft | 483 kts | 56° |
| 2026-04-20 02:03 | -34.92963 | 149.09370 | 28725 ft | 479 kts | 56° |
| 2026-04-20 02:03 | -34.90927 | 149.12563 | 28304 ft | 476 kts | 56° |
| 2026-04-20 02:03 | -34.88898 | 149.15744 | 27886 ft | 474 kts | 56° |
| 2026-04-20 02:03 | -34.86873 | 149.18914 | 27473 ft | 473 kts | 56° |
| 2026-04-20 02:04 | -34.84854 | 149.22071 | 27070 ft | 471 kts | 56° |
| 2026-04-20 02:04 | -34.82867 | 149.25175 | 26676 ft | 467 kts | 56° |
| 2026-04-20 02:04 | -34.80876 | 149.28284 | 26279 ft | 463 kts | 56° |
| 2026-04-20 02:04 | -34.78906 | 149.31355 | 25889 ft | 459 kts | 56° |
| 2026-04-20 02:05 | -34.76947 | 149.34410 | 25512 ft | 456 kts | 56° |
| 2026-04-20 02:05 | -34.75000 | 149.37446 | 25128 ft | 455 kts | 56° |
| 2026-04-20 02:05 | -34.73271 | 149.40653 | 24744 ft | 449 kts | 65° |
| 2026-04-20 02:05 | -34.71841 | 149.44012 | 24375 ft | 444 kts | 66° |
| 2026-04-20 02:06 | -34.70441 | 149.47276 | 24010 ft | 425 kts | 66° |
| 2026-04-20 02:06 | -34.69097 | 149.50377 | 23577 ft | 405 kts | 66° |
| 2026-04-20 02:06 | -34.67802 | 149.53342 | 23152 ft | 392 kts | 66° |
| 2026-04-20 02:06 | -34.66503 | 149.56304 | 22829 ft | 411 kts | 65° |
| 2026-04-20 02:07 | -34.65082 | 149.59449 | 22502 ft | 431 kts | 64° |
| 2026-04-20 02:07 | -34.64131 | 149.61570 | 22278 ft | 430 kts | 65° |
| 2026-04-20 02:07 | -34.62291 | 149.65823 | 21821 ft | 428 kts | 66° |
| 2026-04-20 02:07 | -34.60905 | 149.69019 | 21493 ft | 427 kts | 65° |
| 2026-04-20 02:08 | -34.59957 | 149.71163 | 21267 ft | 425 kts | 65° |
| 2026-04-20 02:08 | -34.58560 | 149.74314 | 20930 ft | 421 kts | 65° |
| 2026-04-20 02:08 | -34.57206 | 149.77397 | 20603 ft | 418 kts | 65° |
| 2026-04-20 02:08 | -34.55845 | 149.80510 | 20281 ft | 415 kts | 65° |
| 2026-04-20 02:09 | -34.54487 | 149.83596 | 19950 ft | 412 kts | 64° |
| 2026-04-20 02:09 | -34.53133 | 149.86659 | 19626 ft | 411 kts | 64° |
| 2026-04-20 02:09 | -34.51785 | 149.89714 | 19303 ft | 410 kts | 64° |
| 2026-04-20 02:09 | -34.50444 | 149.92758 | 18977 ft | 409 kts | 64° |
| 2026-04-20 02:10 | -34.49106 | 149.95786 | 18654 ft | 406 kts | 64° |
| 2026-04-20 02:10 | -34.47790 | 149.98761 | 18308 ft | 404 kts | 64° |
| 2026-04-20 02:10 | -34.46457 | 150.01770 | 17983 ft | 402 kts | 64° |
| 2026-04-20 02:10 | -34.45139 | 150.04745 | 17663 ft | 400 kts | 64° |
| 2026-04-20 02:11 | -34.43823 | 150.07713 | 17347 ft | 399 kts | 64° |
| 2026-04-20 02:11 | -34.42526 | 150.10634 | 17037 ft | 396 kts | 64° |
| 2026-04-20 02:11 | -34.41219 | 150.13577 | 16729 ft | 394 kts | 64° |
| 2026-04-20 02:11 | -34.39920 | 150.16493 | 16412 ft | 392 kts | 64° |
| 2026-04-20 02:12 | -34.38632 | 150.19397 | 16109 ft | 390 kts | 64° |
| 2026-04-20 02:12 | -34.37345 | 150.22288 | 15797 ft | 389 kts | 64° |
| 2026-04-20 02:12 | -34.36061 | 150.25160 | 15492 ft | 387 kts | 64° |
| 2026-04-20 02:12 | -34.34788 | 150.28015 | 15188 ft | 384 kts | 64° |
| 2026-04-20 02:13 | -34.33523 | 150.30852 | 14882 ft | 383 kts | 64° |
| 2026-04-20 02:13 | -34.32277 | 150.33643 | 14587 ft | 380 kts | 64° |
| 2026-04-20 02:13 | -34.31020 | 150.36451 | 14287 ft | 378 kts | 64° |
| 2026-04-20 02:13 | -34.29768 | 150.39247 | 13976 ft | 377 kts | 64° |
| 2026-04-20 02:14 | -34.28524 | 150.42021 | 13659 ft | 375 kts | 64° |
| 2026-04-20 02:14 | -34.27284 | 150.44793 | 13362 ft | 373 kts | 64° |
| 2026-04-20 02:14 | -34.26051 | 150.47555 | 13063 ft | 371 kts | 64° |
| 2026-04-20 02:14 | -34.24829 | 150.50294 | 12774 ft | 370 kts | 64° |
| 2026-04-20 02:15 | -34.23598 | 150.53043 | 12478 ft | 369 kts | 64° |
| 2026-04-20 02:15 | -34.22403 | 150.55712 | 12201 ft | 357 kts | 64° |
| 2026-04-20 02:15 | -34.21254 | 150.58263 | 11922 ft | 335 kts | 64° |
| 2026-04-20 02:15 | -34.20170 | 150.60674 | 11572 ft | 318 kts | 64° |
| 2026-04-20 02:16 | -34.19133 | 150.62997 | 11168 ft | 308 kts | 64° |
| 2026-04-20 02:16 | -34.18130 | 150.65230 | 10873 ft | 298 kts | 64° |
| 2026-04-20 02:16 | -34.17144 | 150.67423 | 10620 ft | 297 kts | 64° |
| 2026-04-20 02:16 | -34.16165 | 150.69607 | 10384 ft | 301 kts | 64° |
| 2026-04-20 02:17 | -34.15160 | 150.71836 | 10148 ft | 303 kts | 64° |
| 2026-04-20 02:17 | -34.14152 | 150.74072 | 9890 ft | 302 kts | 64° |
| 2026-04-20 02:17 | -34.13151 | 150.76294 | 9647 ft | 300 kts | 64° |
| 2026-04-20 02:17 | -34.12154 | 150.78506 | 9408 ft | 298 kts | 64° |
| 2026-04-20 02:18 | -34.11167 | 150.80691 | 9175 ft | 296 kts | 64° |
| 2026-04-20 02:18 | -34.10183 | 150.82871 | 8940 ft | 296 kts | 64° |
| 2026-04-20 02:18 | -34.09204 | 150.85045 | 8708 ft | 295 kts | 64° |
| 2026-04-20 02:18 | -34.08232 | 150.87209 | 8476 ft | 293 kts | 64° |
| 2026-04-20 02:19 | -34.07259 | 150.89374 | 8246 ft | 293 kts | 64° |
| 2026-04-20 02:19 | -34.06289 | 150.91526 | 8023 ft | 292 kts | 64° |
| 2026-04-20 02:19 | -34.04977 | 150.93368 | 7777 ft | 298 kts | 37° |
| 2026-04-20 02:19 | -34.03056 | 150.94297 | 7551 ft | 300 kts | 8° |
| 2026-04-20 02:20 | -34.00976 | 150.94309 | 7400 ft | 297 kts | 355° |
| 2026-04-20 02:20 | -33.98918 | 150.94101 | 7264 ft | 295 kts | 353° |
| 2026-04-20 02:20 | -33.96874 | 150.93861 | 7146 ft | 294 kts | 353° |
| 2026-04-20 02:20 | -33.94861 | 150.93609 | 7022 ft | 295 kts | 353° |
| 2026-04-20 02:21 | -33.90861 | 150.94386 | 6722 ft | 293 kts | 21° |
| 2026-04-20 02:21 | -33.89007 | 150.95258 | 6588 ft | 279 kts | 22° |
| 2026-04-20 02:21 | -33.87238 | 150.96102 | 6412 ft | 267 kts | 22° |
| 2026-04-20 02:22 | -33.85539 | 150.96916 | 6206 ft | 260 kts | 22° |
| 2026-04-20 02:22 | -33.83867 | 150.97712 | 5999 ft | 263 kts | 22° |
| 2026-04-20 02:22 | -33.82154 | 150.98528 | 5791 ft | 266 kts | 22° |
| 2026-04-20 02:22 | -33.80433 | 150.99346 | 5589 ft | 265 kts | 22° |
| 2026-04-20 02:23 | -33.78637 | 150.99804 | 5370 ft | 265 kts | 359° |
| 2026-04-20 02:23 | -33.76817 | 150.99546 | 5199 ft | 261 kts | 350° |
| 2026-04-20 02:23 | -33.75039 | 150.99185 | 5072 ft | 259 kts | 350° |
| 2026-04-20 02:23 | -33.73270 | 150.98819 | 4943 ft | 260 kts | 349° |
| 2026-04-20 02:24 | -33.71466 | 150.98438 | 4813 ft | 259 kts | 349° |
| 2026-04-20 02:24 | -33.69713 | 150.98061 | 4683 ft | 259 kts | 349° |
| 2026-04-20 02:24 | -33.67914 | 150.97673 | 4560 ft | 260 kts | 350° |
| 2026-04-20 02:24 | -33.66135 | 150.97285 | 4434 ft | 258 kts | 349° |
| 2026-04-20 02:25 | -33.64368 | 150.97034 | 4248 ft | 259 kts | 5° |
| 2026-04-20 02:25 | -33.62739 | 150.97832 | 3993 ft | 253 kts | 43° |
| 2026-04-20 02:25 | -33.61871 | 150.99552 | 3752 ft | 237 kts | 81° |
| 2026-04-20 02:25 | -33.62055 | 151.01430 | 3503 ft | 224 kts | 116° |
| 2026-04-20 02:26 | -33.62875 | 151.02980 | 3257 ft | 216 kts | 137° |
| 2026-04-20 02:26 | -33.64105 | 151.03942 | 3029 ft | 208 kts | 157° |
| 2026-04-20 02:26 | -33.65354 | 151.04693 | 2970 ft | 198 kts | 151° |
| 2026-04-20 02:26 | -33.66477 | 151.05598 | 2945 ft | 189 kts | 147° |
| 2026-04-20 02:27 | -33.67529 | 151.06488 | 2945 ft | 182 kts | 148° |
| 2026-04-20 02:27 | -33.68560 | 151.07340 | 2939 ft | 178 kts | 147° |
| 2026-04-20 02:27 | -33.69576 | 151.08192 | 2954 ft | 181 kts | 148° |
| 2026-04-20 02:27 | -33.70618 | 151.09062 | 2948 ft | 181 kts | 148° |
| 2026-04-20 02:28 | -33.71658 | 151.09918 | 2942 ft | 181 kts | 147° |
| 2026-04-20 02:28 | -33.72689 | 151.10781 | 2953 ft | 180 kts | 147° |
| 2026-04-20 02:28 | -33.73695 | 151.11623 | 2958 ft | 176 kts | 148° |
| 2026-04-20 02:28 | -33.74732 | 151.12393 | 2945 ft | 175 kts | 159° |
| 2026-04-20 02:29 | -33.75919 | 151.12727 | 2958 ft | 177 kts | 171° |
| 2026-04-20 02:29 | -33.77129 | 151.13064 | 2953 ft | 177 kts | 167° |
| 2026-04-20 02:29 | -33.78319 | 151.13372 | 2958 ft | 177 kts | 170° |
| 2026-04-20 02:29 | -33.79518 | 151.13670 | 2770 ft | 174 kts | 168° |
| 2026-04-20 02:30 | -33.80637 | 151.13972 | 2549 ft | 155 kts | 169° |
| 2026-04-20 02:30 | -33.81650 | 151.14218 | 2346 ft | 144 kts | 169° |
| 2026-04-20 02:30 | -33.82635 | 151.14494 | 2150 ft | 150 kts | 168° |
| 2026-04-20 02:30 | -33.83616 | 151.14747 | 2005 ft | 140 kts | 169° |
| 2026-04-20 02:31 | -33.84432 | 151.14956 | 1938 ft | 103 kts | 161° |
| 2026-04-20 02:31 | -33.84790 | 151.15177 | 40 ft | 0 kts | 184° |